sensor_id;sensor_type;location;lat;lon;timestamp;temperature;humidity
65652;SHT30;52350;51.546;7.002;2022-09-27T00:02:24;10.88;94.62
65652;SHT30;52350;51.546;7.002;2022-09-27T00:04:50;10.86;94.22
65652;SHT30;52350;51.546;7.002;2022-09-27T00:07:16;10.82;94.52
65652;SHT30;52350;51.546;7.002;2022-09-27T00:09:41;10.80;94.25
65652;SHT30;52350;51.546;7.002;2022-09-27T00:12:07;10.73;94.58
65652;SHT30;52350;51.546;7.002;2022-09-27T00:14:33;10.68;94.83
65652;SHT30;52350;51.546;7.002;2022-09-27T00:16:58;10.76;94.70
65652;SHT30;52350;51.546;7.002;2022-09-27T00:19:24;10.69;94.90
65652;SHT30;52350;51.546;7.002;2022-09-27T00:21:49;10.62;94.98
65652;SHT30;52350;51.546;7.002;2022-09-27T00:24:19;10.61;95.29
65652;SHT30;52350;51.546;7.002;2022-09-27T00:26:46;10.68;95.36
65652;SHT30;52350;51.546;7.002;2022-09-27T00:29:13;10.65;95.30
65652;SHT30;52350;51.546;7.002;2022-09-27T00:31:40;10.66;95.65
65652;SHT30;52350;51.546;7.002;2022-09-27T00:34:06;10.75;95.41
65652;SHT30;52350;51.546;7.002;2022-09-27T00:36:37;10.71;95.05
65652;SHT30;52350;51.546;7.002;2022-09-27T00:39:02;10.72;94.99
65652;SHT30;52350;51.546;7.002;2022-09-27T00:41:30;10.75;94.35
65652;SHT30;52350;51.546;7.002;2022-09-27T00:44:02;10.76;94.02
65652;SHT30;52350;51.546;7.002;2022-09-27T00:46:49;10.66;94.20
65652;SHT30;52350;51.546;7.002;2022-09-27T00:49:29;10.66;94.08
65652;SHT30;52350;51.546;7.002;2022-09-27T00:52:01;10.64;94.36
65652;SHT30;52350;51.546;7.002;2022-09-27T00:54:32;10.64;94.31
65652;SHT30;52350;51.546;7.002;2022-09-27T00:57:00;10.57;94.57
65652;SHT30;52350;51.546;7.002;2022-09-27T00:59:29;10.55;94.87
65652;SHT30;52350;51.546;7.002;2022-09-27T01:01:59;10.52;94.59
65652;SHT30;52350;51.546;7.002;2022-09-27T01:04:26;10.55;94.79
65652;SHT30;52350;51.546;7.002;2022-09-27T01:06:54;10.49;95.15
65652;SHT30;52350;51.546;7.002;2022-09-27T01:09:23;10.54;95.42
65652;SHT30;52350;51.546;7.002;2022-09-27T01:29:15;10.72;94.92
65652;SHT30;52350;51.546;7.002;2022-09-27T01:35:04;10.68;94.78
65652;SHT30;52350;51.546;7.002;2022-09-27T01:42:48;10.57;94.83
65652;SHT30;52350;51.546;7.002;2022-09-27T01:45:27;10.72;94.94
65652;SHT30;52350;51.546;7.002;2022-09-27T01:48:02;10.83;93.96
65652;SHT30;52350;51.546;7.002;2022-09-27T01:50:51;10.72;94.04
65652;SHT30;52350;51.546;7.002;2022-09-27T01:53:41;10.82;93.08
65652;SHT30;52350;51.546;7.002;2022-09-27T01:56:09;10.79;93.37
65652;SHT30;52350;51.546;7.002;2022-09-27T01:58:49;10.72;93.63
65652;SHT30;52350;51.546;7.002;2022-09-27T02:01:22;10.83;93.62
65652;SHT30;52350;51.546;7.002;2022-09-27T02:03:51;10.77;92.53
65652;SHT30;52350;51.546;7.002;2022-09-27T02:06:23;10.73;93.13
65652;SHT30;52350;51.546;7.002;2022-09-27T02:08:57;10.72;92.85
65652;SHT30;52350;51.546;7.002;2022-09-27T02:11:26;10.69;93.50
65652;SHT30;52350;51.546;7.002;2022-09-27T02:13:53;10.75;93.23
65652;SHT30;52350;51.546;7.002;2022-09-27T02:21:44;10.51;93.66
65652;SHT30;52350;51.546;7.002;2022-09-27T02:24:30;10.44;93.86
65652;SHT30;52350;51.546;7.002;2022-09-27T02:27:18;10.54;93.63
65652;SHT30;52350;51.546;7.002;2022-09-27T02:30:04;10.61;92.76
65652;SHT30;52350;51.546;7.002;2022-09-27T02:32:36;10.58;93.32
65652;SHT30;52350;51.546;7.002;2022-09-27T02:35:10;10.47;93.76
65652;SHT30;52350;51.546;7.002;2022-09-27T02:37:40;10.65;93.05
65652;SHT30;52350;51.546;7.002;2022-09-27T02:40:06;10.59;93.01
65652;SHT30;52350;51.546;7.002;2022-09-27T02:42:32;10.66;93.05
65652;SHT30;52350;51.546;7.002;2022-09-27T02:44:58;10.57;93.21
65652;SHT30;52350;51.546;7.002;2022-09-27T02:47:34;10.55;93.43
65652;SHT30;52350;51.546;7.002;2022-09-27T02:50:43;10.57;93.11
65652;SHT30;52350;51.546;7.002;2022-09-27T02:55:51;10.59;93.26
65652;SHT30;52350;51.546;7.002;2022-09-27T03:04:15;10.62;92.63
65652;SHT30;52350;51.546;7.002;2022-09-27T03:06:47;10.45;93.01
65652;SHT30;52350;51.546;7.002;2022-09-27T03:09:24;10.45;93.42
65652;SHT30;52350;51.546;7.002;2022-09-27T03:11:53;10.38;93.54
65652;SHT30;52350;51.546;7.002;2022-09-27T03:14:19;10.34;93.41
65652;SHT30;52350;51.546;7.002;2022-09-27T03:16:45;10.30;92.94
65652;SHT30;52350;51.546;7.002;2022-09-27T03:19:10;10.24;93.22
65652;SHT30;52350;51.546;7.002;2022-09-27T03:21:36;10.20;93.14
65652;SHT30;52350;51.546;7.002;2022-09-27T03:24:02;10.10;93.56
65652;SHT30;52350;51.546;7.002;2022-09-27T03:26:28;10.00;94.11
65652;SHT30;52350;51.546;7.002;2022-09-27T03:28:53;9.96;94.47
65652;SHT30;52350;51.546;7.002;2022-09-27T03:31:19;9.97;94.55
65652;SHT30;52350;51.546;7.002;2022-09-27T03:33:44;9.87;94.82
65652;SHT30;52350;51.546;7.002;2022-09-27T03:36:10;9.87;94.88
65652;SHT30;52350;51.546;7.002;2022-09-27T03:38:36;9.89;95.12
65652;SHT30;52350;51.546;7.002;2022-09-27T03:41:02;9.93;95.09
65652;SHT30;52350;51.546;7.002;2022-09-27T03:43:28;10.03;94.95
65652;SHT30;52350;51.546;7.002;2022-09-27T03:45:54;10.20;94.36
65652;SHT30;52350;51.546;7.002;2022-09-27T03:48:20;10.30;94.36
65652;SHT30;52350;51.546;7.002;2022-09-27T03:50:45;10.23;93.98
65652;SHT30;52350;51.546;7.002;2022-09-27T03:53:11;10.20;94.14
65652;SHT30;52350;51.546;7.002;2022-09-27T03:55:37;10.31;94.11
65652;SHT30;52350;51.546;7.002;2022-09-27T03:58:03;10.34;93.35
65652;SHT30;52350;51.546;7.002;2022-09-27T04:00:29;10.34;93.29
65652;SHT30;52350;51.546;7.002;2022-09-27T04:02:56;10.33;93.10
65652;SHT30;52350;51.546;7.002;2022-09-27T04:05:23;10.27;93.51
65652;SHT30;52350;51.546;7.002;2022-09-27T04:07:52;10.21;93.60
65652;SHT30;52350;51.546;7.002;2022-09-27T04:10:18;10.23;93.57
65652;SHT30;52350;51.546;7.002;2022-09-27T04:12:45;10.24;93.73
65652;SHT30;52350;51.546;7.002;2022-09-27T04:15:11;10.21;93.68
65652;SHT30;52350;51.546;7.002;2022-09-27T04:17:37;10.21;93.72
65652;SHT30;52350;51.546;7.002;2022-09-27T04:20:06;10.13;93.35
65652;SHT30;52350;51.546;7.002;2022-09-27T04:22:32;10.13;93.58
65652;SHT30;52350;51.546;7.002;2022-09-27T04:24:58;10.07;93.78
65652;SHT30;52350;51.546;7.002;2022-09-27T04:27:23;10.00;94.07
65652;SHT30;52350;51.546;7.002;2022-09-27T04:29:48;9.99;94.28
65652;SHT30;52350;51.546;7.002;2022-09-27T04:32:14;9.97;93.86
65652;SHT30;52350;51.546;7.002;2022-09-27T04:34:39;9.83;94.24
65652;SHT30;52350;51.546;7.002;2022-09-27T04:37:23;9.81;94.16
65652;SHT30;52350;51.546;7.002;2022-09-27T04:39:50;9.76;94.51
65652;SHT30;52350;51.546;7.002;2022-09-27T04:42:15;9.76;94.26
65652;SHT30;52350;51.546;7.002;2022-09-27T04:44:41;9.78;93.76
65652;SHT30;52350;51.546;7.002;2022-09-27T04:47:07;9.75;93.86
65652;SHT30;52350;51.546;7.002;2022-09-27T04:49:33;9.78;93.83
65652;SHT30;52350;51.546;7.002;2022-09-27T04:51:58;9.72;93.78
65652;SHT30;52350;51.546;7.002;2022-09-27T04:54:25;9.76;93.88
65652;SHT30;52350;51.546;7.002;2022-09-27T04:56:50;9.85;93.55
65652;SHT30;52350;51.546;7.002;2022-09-27T04:59:16;9.79;93.11
65652;SHT30;52350;51.546;7.002;2022-09-27T05:01:41;9.74;93.48
65652;SHT30;52350;51.546;7.002;2022-09-27T05:04:06;9.75;93.75
65652;SHT30;52350;51.546;7.002;2022-09-27T05:06:32;9.78;93.46
65652;SHT30;52350;51.546;7.002;2022-09-27T05:08:58;9.79;93.60
65652;SHT30;52350;51.546;7.002;2022-09-27T05:11:24;9.79;93.31
65652;SHT30;52350;51.546;7.002;2022-09-27T05:13:50;9.92;93.07
65652;SHT30;52350;51.546;7.002;2022-09-27T05:16:15;9.87;92.76
65652;SHT30;52350;51.546;7.002;2022-09-27T05:18:41;9.85;93.04
65652;SHT30;52350;51.546;7.002;2022-09-27T05:21:07;9.89;93.07
65652;SHT30;52350;51.546;7.002;2022-09-27T05:23:32;9.96;92.53
65652;SHT30;52350;51.546;7.002;2022-09-27T05:26:01;9.95;92.55
65652;SHT30;52350;51.546;7.002;2022-09-27T05:28:31;9.92;92.96
65652;SHT30;52350;51.546;7.002;2022-09-27T05:30:59;9.86;93.22
65652;SHT30;52350;51.546;7.002;2022-09-27T05:33:25;9.93;93.08
65652;SHT30;52350;51.546;7.002;2022-09-27T05:35:51;9.93;92.79
65652;SHT30;52350;51.546;7.002;2022-09-27T05:38:18;9.92;92.91
65652;SHT30;52350;51.546;7.002;2022-09-27T05:40:43;9.83;92.84
65652;SHT30;52350;51.546;7.002;2022-09-27T05:43:11;9.85;93.05
65652;SHT30;52350;51.546;7.002;2022-09-27T05:45:37;9.99;91.96
65652;SHT30;52350;51.546;7.002;2022-09-27T05:48:02;9.95;91.47
65652;SHT30;52350;51.546;7.002;2022-09-27T05:50:29;10.10;90.92
65652;SHT30;52350;51.546;7.002;2022-09-27T05:52:55;10.03;90.53
65652;SHT30;52350;51.546;7.002;2022-09-27T05:55:22;9.92;91.26
65652;SHT30;52350;51.546;7.002;2022-09-27T05:57:57;9.89;91.88
65652;SHT30;52350;51.546;7.002;2022-09-27T06:00:25;9.85;91.91
65652;SHT30;52350;51.546;7.002;2022-09-27T06:02:52;10.03;90.51
65652;SHT30;52350;51.546;7.002;2022-09-27T06:05:22;9.92;91.03
65652;SHT30;52350;51.546;7.002;2022-09-27T06:07:49;9.97;91.02
65652;SHT30;52350;51.546;7.002;2022-09-27T06:10:16;9.87;90.99
65652;SHT30;52350;51.546;7.002;2022-09-27T06:12:43;9.99;90.53
65652;SHT30;52350;51.546;7.002;2022-09-27T06:15:08;10.02;90.57
65652;SHT30;52350;51.546;7.002;2022-09-27T06:17:34;10.07;89.79
65652;SHT30;52350;51.546;7.002;2022-09-27T06:19:59;10.04;89.44
65652;SHT30;52350;51.546;7.002;2022-09-27T06:22:25;10.09;90.26
65652;SHT30;52350;51.546;7.002;2022-09-27T06:24:50;10.07;89.39
65652;SHT30;52350;51.546;7.002;2022-09-27T06:27:16;10.06;90.22
65652;SHT30;52350;51.546;7.002;2022-09-27T06:29:43;10.06;90.48
65652;SHT30;52350;51.546;7.002;2022-09-27T06:32:09;10.07;90.25
65652;SHT30;52350;51.546;7.002;2022-09-27T06:34:34;10.21;90.73
65652;SHT30;52350;51.546;7.002;2022-09-27T06:37:14;10.09;90.44
65652;SHT30;52350;51.546;7.002;2022-09-27T06:39:58;10.09;90.47
65652;SHT30;52350;51.546;7.002;2022-09-27T06:42:25;10.04;90.36
65652;SHT30;52350;51.546;7.002;2022-09-27T06:44:51;10.16;90.23
65652;SHT30;52350;51.546;7.002;2022-09-27T06:47:17;10.23;89.39
65652;SHT30;52350;51.546;7.002;2022-09-27T06:49:42;10.33;88.37
65652;SHT30;52350;51.546;7.002;2022-09-27T06:52:08;10.27;88.12
65652;SHT30;52350;51.546;7.002;2022-09-27T06:54:33;10.17;89.19
65652;SHT30;52350;51.546;7.002;2022-09-27T06:56:58;10.14;89.85
65652;SHT30;52350;51.546;7.002;2022-09-27T06:59:24;10.12;89.30
65652;SHT30;52350;51.546;7.002;2022-09-27T07:02:08;10.14;89.57
65652;SHT30;52350;51.546;7.002;2022-09-27T07:04:34;10.10;89.91
65652;SHT30;52350;51.546;7.002;2022-09-27T07:06:59;10.12;88.87
65652;SHT30;52350;51.546;7.002;2022-09-27T07:09:25;10.30;88.43
65652;SHT30;52350;51.546;7.002;2022-09-27T07:11:50;10.21;88.36
65652;SHT30;52350;51.546;7.002;2022-09-27T07:14:16;10.20;88.02
65652;SHT30;52350;51.546;7.002;2022-09-27T07:16:41;10.29;87.92
65652;SHT30;52350;51.546;7.002;2022-09-27T07:19:07;10.36;87.06
65652;SHT30;52350;51.546;7.002;2022-09-27T07:21:35;10.48;84.43
65652;SHT30;52350;51.546;7.002;2022-09-27T07:24:01;10.36;86.28
65652;SHT30;52350;51.546;7.002;2022-09-27T07:26:26;10.37;86.43
65652;SHT30;52350;51.546;7.002;2022-09-27T07:28:52;10.33;87.32
65652;SHT30;52350;51.546;7.002;2022-09-27T07:31:18;10.41;87.12
65652;SHT30;52350;51.546;7.002;2022-09-27T07:33:44;10.45;88.30
65652;SHT30;52350;51.546;7.002;2022-09-27T07:36:10;10.48;88.32
65652;SHT30;52350;51.546;7.002;2022-09-27T07:38:36;10.72;87.11
65652;SHT30;52350;51.546;7.002;2022-09-27T07:41:09;10.73;86.87
65652;SHT30;52350;51.546;7.002;2022-09-27T07:43:38;10.80;86.96
65652;SHT30;52350;51.546;7.002;2022-09-27T07:46:04;10.88;85.82
65652;SHT30;52350;51.546;7.002;2022-09-27T07:48:30;10.93;86.32
65652;SHT30;52350;51.546;7.002;2022-09-27T07:50:56;10.92;86.29
65652;SHT30;52350;51.546;7.002;2022-09-27T07:53:22;10.85;86.90
65652;SHT30;52350;51.546;7.002;2022-09-27T07:55:51;10.82;86.85
65652;SHT30;52350;51.546;7.002;2022-09-27T07:58:17;10.79;85.99
65652;SHT30;52350;51.546;7.002;2022-09-27T08:00:43;10.82;86.16
65652;SHT30;52350;51.546;7.002;2022-09-27T08:03:10;10.77;85.11
65652;SHT30;52350;51.546;7.002;2022-09-27T08:05:40;10.68;86.63
65652;SHT30;52350;51.546;7.002;2022-09-27T08:08:06;10.71;85.56
65652;SHT30;52350;51.546;7.002;2022-09-27T08:10:32;10.69;85.81
65652;SHT30;52350;51.546;7.002;2022-09-27T08:13:02;10.71;86.28
65652;SHT30;52350;51.546;7.002;2022-09-27T08:15:32;10.89;84.41
65652;SHT30;52350;51.546;7.002;2022-09-27T08:18:00;10.96;85.69
65652;SHT30;52350;51.546;7.002;2022-09-27T08:20:26;11.14;84.55
65652;SHT30;52350;51.546;7.002;2022-09-27T08:22:52;11.16;84.63
65652;SHT30;52350;51.546;7.002;2022-09-27T08:25:17;11.17;84.17
65652;SHT30;52350;51.546;7.002;2022-09-27T08:27:43;11.27;84.53
65652;SHT30;52350;51.546;7.002;2022-09-27T08:30:08;11.35;84.21
65652;SHT30;52350;51.546;7.002;2022-09-27T08:32:34;11.45;84.72
65652;SHT30;52350;51.546;7.002;2022-09-27T08:35:01;11.62;82.51
65652;SHT30;52350;51.546;7.002;2022-09-27T08:37:26;11.64;83.31
65652;SHT30;52350;51.546;7.002;2022-09-27T08:39:51;11.79;84.06
65652;SHT30;52350;51.546;7.002;2022-09-27T08:47:43;11.83;81.79
65652;SHT30;52350;51.546;7.002;2022-09-27T08:50:17;11.86;81.57
65652;SHT30;52350;51.546;7.002;2022-09-27T08:55:36;11.76;80.29
65652;SHT30;52350;51.546;7.002;2022-09-27T08:58:11;11.76;81.95
65652;SHT30;52350;51.546;7.002;2022-09-27T09:00:37;11.82;81.31
65652;SHT30;52350;51.546;7.002;2022-09-27T09:03:03;11.78;80.73
65652;SHT30;52350;51.546;7.002;2022-09-27T09:05:30;11.72;79.44
65652;SHT30;52350;51.546;7.002;2022-09-27T09:10:54;11.54;81.36
65652;SHT30;52350;51.546;7.002;2022-09-27T09:14:00;11.42;81.26
65652;SHT30;52350;51.546;7.002;2022-09-27T09:16:45;11.44;82.46
65652;SHT30;52350;51.546;7.002;2022-09-27T09:19:40;11.48;83.35
65652;SHT30;52350;51.546;7.002;2022-09-27T09:24:52;11.54;84.62
65652;SHT30;52350;51.546;7.002;2022-09-27T09:27:33;11.51;84.75
65652;SHT30;52350;51.546;7.002;2022-09-27T09:30:19;11.39;85.71
65652;SHT30;52350;51.546;7.002;2022-09-27T09:35:35;11.35;86.60
65652;SHT30;52350;51.546;7.002;2022-09-27T09:38:26;11.34;86.00
65652;SHT30;52350;51.546;7.002;2022-09-27T09:41:08;11.24;87.48
65652;SHT30;52350;51.546;7.002;2022-09-27T09:43:53;11.30;87.19
65652;SHT30;52350;51.546;7.002;2022-09-27T09:46:40;11.23;86.33
65652;SHT30;52350;51.546;7.002;2022-09-27T09:49:15;11.10;87.60
65652;SHT30;52350;51.546;7.002;2022-09-27T09:51:50;11.11;86.51
65652;SHT30;52350;51.546;7.002;2022-09-27T09:56:49;10.99;89.22
65652;SHT30;52350;51.546;7.002;2022-09-27T09:59:50;10.99;89.75
65652;SHT30;52350;51.546;7.002;2022-09-27T10:05:04;11.21;88.80
65652;SHT30;52350;51.546;7.002;2022-09-27T10:07:31;11.20;88.62
65652;SHT30;52350;51.546;7.002;2022-09-27T10:10:00;11.31;88.22
65652;SHT30;52350;51.546;7.002;2022-09-27T10:12:29;11.31;88.08
65652;SHT30;52350;51.546;7.002;2022-09-27T10:14:56;11.50;86.09
65652;SHT30;52350;51.546;7.002;2022-09-27T10:17:26;11.44;87.66
65652;SHT30;52350;51.546;7.002;2022-09-27T10:19:59;11.30;87.93
65652;SHT30;52350;51.546;7.002;2022-09-27T10:22:34;11.26;87.54
65652;SHT30;52350;51.546;7.002;2022-09-27T10:25:05;11.23;87.75
65652;SHT30;52350;51.546;7.002;2022-09-27T10:27:43;11.16;87.68
65652;SHT30;52350;51.546;7.002;2022-09-27T10:30:26;11.19;88.68
65652;SHT30;52350;51.546;7.002;2022-09-27T10:32:55;11.41;87.49
65652;SHT30;52350;51.546;7.002;2022-09-27T10:35:36;11.30;88.63
65652;SHT30;52350;51.546;7.002;2022-09-27T10:38:11;11.37;88.00
65652;SHT30;52350;51.546;7.002;2022-09-27T10:40:48;11.41;87.67
65652;SHT30;52350;51.546;7.002;2022-09-27T10:43:35;11.31;87.29
65652;SHT30;52350;51.546;7.002;2022-09-27T10:49:06;11.24;88.83
65652;SHT30;52350;51.546;7.002;2022-09-27T10:51:56;11.42;87.24
65652;SHT30;52350;51.546;7.002;2022-09-27T10:54:25;11.38;88.06
65652;SHT30;52350;51.546;7.002;2022-09-27T10:56:53;11.39;87.73
65652;SHT30;52350;51.546;7.002;2022-09-27T10:59:24;11.38;86.91
65652;SHT30;52350;51.546;7.002;2022-09-27T11:01:52;11.28;88.64
65652;SHT30;52350;51.546;7.002;2022-09-27T11:04:38;11.24;89.24
65652;SHT30;52350;51.546;7.002;2022-09-27T11:07:15;11.24;89.68
65652;SHT30;52350;51.546;7.002;2022-09-27T11:09:48;11.42;89.20
65652;SHT30;52350;51.546;7.002;2022-09-27T11:12:17;11.52;88.74
65652;SHT30;52350;51.546;7.002;2022-09-27T11:14:52;11.64;86.83
65652;SHT30;52350;51.546;7.002;2022-09-27T11:17:36;11.66;85.06
65652;SHT30;52350;51.546;7.002;2022-09-27T11:20:21;11.83;83.06
65652;SHT30;52350;51.546;7.002;2022-09-27T11:23:01;11.79;83.92
65652;SHT30;52350;51.546;7.002;2022-09-27T11:39:25;12.26;81.53
65652;SHT30;52350;51.546;7.002;2022-09-27T11:42:06;12.10;81.52
65652;SHT30;52350;51.546;7.002;2022-09-27T12:01:32;12.31;82.58
65652;SHT30;52350;51.546;7.002;2022-09-27T12:04:09;12.26;82.03
65652;SHT30;52350;51.546;7.002;2022-09-27T12:07:04;12.17;82.29
65652;SHT30;52350;51.546;7.002;2022-09-27T12:09:44;11.94;83.11
65652;SHT30;52350;51.546;7.002;2022-09-27T12:14:58;11.99;85.78
65652;SHT30;52350;51.546;7.002;2022-09-27T12:17:32;12.63;82.54
65652;SHT30;52350;51.546;7.002;2022-09-27T12:20:16;12.95;80.88
65652;SHT30;52350;51.546;7.002;2022-09-27T12:25:23;12.68;81.19
65652;SHT30;52350;51.546;7.002;2022-09-27T12:28:00;12.55;82.18
65652;SHT30;52350;51.546;7.002;2022-09-27T12:30:53;12.45;81.46
65652;SHT30;52350;51.546;7.002;2022-09-27T12:33:31;12.31;82.83
65652;SHT30;52350;51.546;7.002;2022-09-27T12:36:15;12.20;82.90
65652;SHT30;52350;51.546;7.002;2022-09-27T12:38:49;12.20;83.14
65652;SHT30;52350;51.546;7.002;2022-09-27T12:41:21;12.09;83.61
65652;SHT30;52350;51.546;7.002;2022-09-27T12:43:49;12.04;84.53
65652;SHT30;52350;51.546;7.002;2022-09-27T12:46:23;12.09;83.28
65652;SHT30;52350;51.546;7.002;2022-09-27T12:51:57;12.16;84.29
65652;SHT30;52350;51.546;7.002;2022-09-27T12:57:22;12.51;80.70
65652;SHT30;52350;51.546;7.002;2022-09-27T13:00:05;12.99;79.84
65652;SHT30;52350;51.546;7.002;2022-09-27T13:08:21;12.88;78.07
65652;SHT30;52350;51.546;7.002;2022-09-27T13:13:42;13.06;78.22
65652;SHT30;52350;51.546;7.002;2022-09-27T13:16:08;12.99;79.23
65652;SHT30;52350;51.546;7.002;2022-09-27T13:21:53;13.43;75.51
65652;SHT30;52350;51.546;7.002;2022-09-27T13:32:36;12.71;76.84
65652;SHT30;52350;51.546;7.002;2022-09-27T13:35:21;12.62;77.95
65652;SHT30;52350;51.546;7.002;2022-09-27T13:37:53;12.79;78.55
65652;SHT30;52350;51.546;7.002;2022-09-27T13:45:37;13.14;75.13
65652;SHT30;52350;51.546;7.002;2022-09-27T13:48:14;13.23;75.05
65652;SHT30;52350;51.546;7.002;2022-09-27T14:04:50;13.38;74.37
65652;SHT30;52350;51.546;7.002;2022-09-27T14:07:34;13.59;75.72
65652;SHT30;52350;51.546;7.002;2022-09-27T14:10:20;13.69;72.40
65652;SHT30;52350;51.546;7.002;2022-09-27T14:12:47;13.59;71.63
65652;SHT30;52350;51.546;7.002;2022-09-27T14:15:28;13.52;72.38
65652;SHT30;52350;51.546;7.002;2022-09-27T14:17:56;13.48;74.76
65652;SHT30;52350;51.546;7.002;2022-09-27T14:20:39;13.38;73.80
65652;SHT30;52350;51.546;7.002;2022-09-27T14:23:20;13.31;74.31
65652;SHT30;52350;51.546;7.002;2022-09-27T14:25:48;13.18;75.09
65652;SHT30;52350;51.546;7.002;2022-09-27T14:28:25;13.09;75.95
65652;SHT30;52350;51.546;7.002;2022-09-27T14:33:46;12.85;76.72
65652;SHT30;52350;51.546;7.002;2022-09-27T14:36:41;12.85;72.88
65652;SHT30;52350;51.546;7.002;2022-09-27T14:39:33;12.79;73.08
65652;SHT30;52350;51.546;7.002;2022-09-27T14:42:04;12.75;74.96
65652;SHT30;52350;51.546;7.002;2022-09-27T14:44:55;12.93;72.94
65652;SHT30;52350;51.546;7.002;2022-09-27T14:47:31;13.10;72.91
65652;SHT30;52350;51.546;7.002;2022-09-27T15:02:07;12.88;70.91
65652;SHT30;52350;51.546;7.002;2022-09-27T15:04:43;12.82;71.82
65652;SHT30;52350;51.546;7.002;2022-09-27T15:07:11;12.76;71.41
65652;SHT30;52350;51.546;7.002;2022-09-27T15:09:39;12.71;72.26
65652;SHT30;52350;51.546;7.002;2022-09-27T15:12:08;12.69;71.22
65652;SHT30;52350;51.546;7.002;2022-09-27T15:14:46;12.68;71.63
65652;SHT30;52350;51.546;7.002;2022-09-27T15:17:16;12.66;71.29
65652;SHT30;52350;51.546;7.002;2022-09-27T15:20:37;12.68;72.53
65652;SHT30;52350;51.546;7.002;2022-09-27T15:23:25;12.78;71.12
65652;SHT30;52350;51.546;7.002;2022-09-27T15:26:02;12.71;71.31
65652;SHT30;52350;51.546;7.002;2022-09-27T15:28:34;12.66;72.12
65652;SHT30;52350;51.546;7.002;2022-09-27T15:34:57;12.72;71.82
65652;SHT30;52350;51.546;7.002;2022-09-27T15:37:50;12.73;73.06
65652;SHT30;52350;51.546;7.002;2022-09-27T15:42:55;12.68;72.85
65652;SHT30;52350;51.546;7.002;2022-09-27T15:45:32;12.58;74.15
65652;SHT30;52350;51.546;7.002;2022-09-27T15:52:00;12.58;73.78
65652;SHT30;52350;51.546;7.002;2022-09-27T15:54:35;12.58;72.74
65652;SHT30;52350;51.546;7.002;2022-09-27T15:57:30;12.52;73.87
65652;SHT30;52350;51.546;7.002;2022-09-27T16:00:12;12.46;74.58
65652;SHT30;52350;51.546;7.002;2022-09-27T16:03:15;12.35;75.72
65652;SHT30;52350;51.546;7.002;2022-09-27T16:05:55;12.33;75.12
65652;SHT30;52350;51.546;7.002;2022-09-27T16:08:22;12.33;75.40
65652;SHT30;52350;51.546;7.002;2022-09-27T16:10:49;12.40;73.90
65652;SHT30;52350;51.546;7.002;2022-09-27T16:13:16;12.48;72.62
65652;SHT30;52350;51.546;7.002;2022-09-27T16:15:42;12.46;73.03
65652;SHT30;52350;51.546;7.002;2022-09-27T16:18:09;12.49;73.17
65652;SHT30;52350;51.546;7.002;2022-09-27T16:20:35;12.52;72.38
65652;SHT30;52350;51.546;7.002;2022-09-27T16:23:00;12.34;73.87
65652;SHT30;52350;51.546;7.002;2022-09-27T16:25:26;12.20;74.65
65652;SHT30;52350;51.546;7.002;2022-09-27T16:27:52;12.21;74.93
65652;SHT30;52350;51.546;7.002;2022-09-27T16:30:21;12.30;73.32
65652;SHT30;52350;51.546;7.002;2022-09-27T16:32:46;12.20;74.08
65652;SHT30;52350;51.546;7.002;2022-09-27T16:35:13;12.23;73.73
65652;SHT30;52350;51.546;7.002;2022-09-27T16:37:40;12.12;74.47
65652;SHT30;52350;51.546;7.002;2022-09-27T16:40:07;12.10;74.54
65652;SHT30;52350;51.546;7.002;2022-09-27T16:42:33;12.03;74.35
65652;SHT30;52350;51.546;7.002;2022-09-27T16:44:59;11.92;74.88
65652;SHT30;52350;51.546;7.002;2022-09-27T16:47:26;11.79;74.70
65652;SHT30;52350;51.546;7.002;2022-09-27T16:49:52;11.69;74.91
65652;SHT30;52350;51.546;7.002;2022-09-27T16:52:36;11.69;73.30
65652;SHT30;52350;51.546;7.002;2022-09-27T16:55:02;11.50;73.97
65652;SHT30;52350;51.546;7.002;2022-09-27T16:57:28;11.38;73.96
65652;SHT30;52350;51.546;7.002;2022-09-27T16:59:54;11.38;73.77
65652;SHT30;52350;51.546;7.002;2022-09-27T17:02:22;11.37;73.33
65652;SHT30;52350;51.546;7.002;2022-09-27T17:04:49;11.27;74.85
65652;SHT30;52350;51.546;7.002;2022-09-27T17:07:20;11.27;74.56
65652;SHT30;52350;51.546;7.002;2022-09-27T17:09:45;11.30;75.08
65652;SHT30;52350;51.546;7.002;2022-09-27T17:12:11;11.35;75.28
65652;SHT30;52350;51.546;7.002;2022-09-27T17:14:37;11.26;76.23
65652;SHT30;52350;51.546;7.002;2022-09-27T17:17:03;11.42;75.25
65652;SHT30;52350;51.546;7.002;2022-09-27T17:19:29;11.19;76.66
65652;SHT30;52350;51.546;7.002;2022-09-27T17:21:54;11.03;77.79
65652;SHT30;52350;51.546;7.002;2022-09-27T17:24:20;11.16;77.63
65652;SHT30;52350;51.546;7.002;2022-09-27T17:26:46;11.28;77.05
65652;SHT30;52350;51.546;7.002;2022-09-27T17:29:15;11.23;76.47
65652;SHT30;52350;51.546;7.002;2022-09-27T17:31:55;11.07;77.46
65652;SHT30;52350;51.546;7.002;2022-09-27T17:34:20;11.28;76.00
65652;SHT30;52350;51.546;7.002;2022-09-27T17:36:46;11.20;76.42
65652;SHT30;52350;51.546;7.002;2022-09-27T17:39:17;11.16;76.73
65652;SHT30;52350;51.546;7.002;2022-09-27T17:41:47;11.02;77.70
65652;SHT30;52350;51.546;7.002;2022-09-27T17:44:14;11.07;76.93
65652;SHT30;52350;51.546;7.002;2022-09-27T17:46:42;11.02;77.62
65652;SHT30;52350;51.546;7.002;2022-09-27T17:49:08;10.93;78.15
65652;SHT30;52350;51.546;7.002;2022-09-27T17:51:54;10.83;78.46
65652;SHT30;52350;51.546;7.002;2022-09-27T17:54:20;10.95;78.17
65652;SHT30;52350;51.546;7.002;2022-09-27T17:56:48;10.86;78.86
65652;SHT30;52350;51.546;7.002;2022-09-27T17:59:14;10.85;78.20
65652;SHT30;52350;51.546;7.002;2022-09-27T18:01:42;10.93;77.95
65652;SHT30;52350;51.546;7.002;2022-09-27T18:04:09;10.85;78.58
65652;SHT30;52350;51.546;7.002;2022-09-27T18:06:37;10.88;78.37
65652;SHT30;52350;51.546;7.002;2022-09-27T18:09:04;10.79;78.61
65652;SHT30;52350;51.546;7.002;2022-09-27T18:11:32;10.92;78.53
65652;SHT30;52350;51.546;7.002;2022-09-27T18:13:58;10.91;78.81
65652;SHT30;52350;51.546;7.002;2022-09-27T18:16:25;10.91;78.55
65652;SHT30;52350;51.546;7.002;2022-09-27T18:18:59;10.95;78.73
65652;SHT30;52350;51.546;7.002;2022-09-27T18:21:26;10.79;79.91
65652;SHT30;52350;51.546;7.002;2022-09-27T18:23:53;10.85;80.19
65652;SHT30;52350;51.546;7.002;2022-09-27T18:26:24;10.80;80.81
65652;SHT30;52350;51.546;7.002;2022-09-27T18:28:53;10.72;80.89
65652;SHT30;52350;51.546;7.002;2022-09-27T18:31:20;10.72;81.06
65652;SHT30;52350;51.546;7.002;2022-09-27T18:33:48;10.73;80.41
65652;SHT30;52350;51.546;7.002;2022-09-27T18:38:41;10.52;82.94
65652;SHT30;52350;51.546;7.002;2022-09-27T18:41:11;10.49;83.47
65652;SHT30;52350;51.546;7.002;2022-09-27T18:43:38;10.57;82.99
65652;SHT30;52350;51.546;7.002;2022-09-27T18:46:05;10.41;84.07
65652;SHT30;52350;51.546;7.002;2022-09-27T18:48:32;10.34;84.05
65652;SHT30;52350;51.546;7.002;2022-09-27T18:51:09;10.29;84.81